Time,TemperatureF,DewpointF,PressureIn,WindDirection,WindDirectionDegrees,WindSpeedMPH,WindSpeedGustMPH,Humidity,HourlyPrecipIn,Conditions,Clouds,dailyrainin,SoftwareType,DateUTC
2013-09-14 00:00:00,48.8,48.8,30.03,ESE,103,0.0,0.0,100,-99.99,,,0.00,VWS V14.01,2013-09-14 04:00:00,
2013-09-14 00:01:00,48.8,48.8,30.03,ESE,103,0.0,0.0,100,-99.99,,,0.00,VWS V14.01,2013-09-14 04:01:00,
2013-09-14 00:02:00,48.8,48.8,30.03,ESE,103,0.0,0.0,100,-99.99,,,0.00,VWS V14.01,2013-09-14 04:02:00,
2013-09-14 00:07:00,48.5,48.5,30.03,ESE,103,0.0,0.0,100,-99.99,,,0.00,VWS V14.01,2013-09-14 04:07:00,
2013-09-14 00:12:00,48.4,48.4,30.03,ESE,103,0.0,0.0,100,-99.99,,,0.00,VWS V14.01,2013-09-14 04:12:00,
2013-09-14 00:17:00,48.3,48.3,30.03,ESE,103,0.0,0.0,100,-99.99,,,0.00,VWS V14.01,2013-09-14 04:17:00,
2013-09-14 00:22:00,48.2,48.2,30.03,ESE,103,0.0,0.0,100,-99.99,,,0.00,VWS V14.01,2013-09-14 04:22:00,
2013-09-14 00:27:00,48.3,48.3,30.03,ESE,103,0.0,0.0,100,-99.99,,,0.00,VWS V14.01,2013-09-14 04:27:00,
2013-09-14 00:32:00,48.3,48.3,30.03,ESE,103,0.0,0.0,100,-99.99,,,0.00,VWS V14.01,2013-09-14 04:32:00,
2013-09-14 00:37:00,48.5,48.5,30.03,ESE,103,0.0,0.0,100,-99.99,,,0.00,VWS V14.01,2013-09-14 04:37:00,
2013-09-14 00:41:00,48.4,48.4,30.03,ESE,103,0.0,0.0,100,-99.99,,,0.00,VWS V14.01,2013-09-14 04:41:00,
2013-09-14 00:46:00,48.3,48.3,30.03,ESE,103,0.0,0.0,100,-99.99,,,0.00,VWS V14.01,2013-09-14 04:46:00,
2013-09-14 00:51:00,48.4,48.4,30.03,ESE,103,0.0,0.0,100,-99.99,,,0.00,VWS V14.01,2013-09-14 04:51:00,
2013-09-14 00:56:00,48.4,48.4,30.03,ESE,103,0.0,0.0,100,-99.99,,,0.00,VWS V14.01,2013-09-14 04:56:00,
2013-09-14 01:01:00,48.5,48.5,30.03,ESE,103,0.0,0.0,100,-99.99,,,0.00,VWS V14.01,2013-09-14 05:01:00,
2013-09-14 01:06:00,48.4,48.4,30.03,ESE,103,0.0,0.0,100,-99.99,,,0.00,VWS V14.01,2013-09-14 05:06:00,
2013-09-14 01:11:00,48.3,48.3,30.03,ESE,103,0.0,0.0,100,-99.99,,,0.00,VWS V14.01,2013-09-14 05:11:00,
2013-09-14 01:16:00,48.1,48.1,30.03,WNW,291,0.0,5.0,100,-99.99,,,0.00,VWS V14.01,2013-09-14 05:16:00,
2013-09-14 01:21:00,48.1,48.1,30.03,WNW,291,0.0,5.0,100,-99.99,,,0.00,VWS V14.01,2013-09-14 05:21:00,
2013-09-14 01:26:00,48.1,48.1,30.03,WNW,291,0.0,5.0,100,-99.99,,,0.00,VWS V14.01,2013-09-14 05:26:00,
2013-09-14 01:31:00,47.9,47.9,30.03,WNW,291,0.0,0.0,100,-99.99,,,0.00,VWS V14.01,2013-09-14 05:31:00,
2013-09-14 01:36:00,47.8,47.8,30.03,WNW,291,0.0,0.0,100,-99.99,,,0.00,VWS V14.01,2013-09-14 05:36:00,
2013-09-14 01:41:00,47.8,47.8,30.03,WNW,291,0.0,0.0,100,-99.99,,,0.00,VWS V14.01,2013-09-14 05:41:00,
2013-09-14 01:46:00,47.8,47.8,30.03,WNW,291,0.0,0.0,100,-99.99,,,0.00,VWS V14.01,2013-09-14 05:46:00,
2013-09-14 01:51:00,47.7,47.7,30.04,WNW,291,0.0,0.0,100,-99.99,,,0.00,VWS V14.01,2013-09-14 05:51:00,
2013-09-14 01:56:00,47.5,47.5,30.04,WNW,291,0.0,0.0,100,-99.99,,,0.00,VWS V14.01,2013-09-14 05:56:00,
2013-09-14 02:01:00,47.3,47.3,30.04,WNW,291,0.0,0.0,100,-99.99,,,0.00,VWS V14.01,2013-09-14 06:01:00,
2013-09-14 02:06:00,47.4,47.4,30.03,WNW,291,0.0,0.0,100,-99.99,,,0.00,VWS V14.01,2013-09-14 06:06:00,
2013-09-14 02:11:00,47.3,47.3,30.03,WNW,291,0.0,0.0,100,-99.99,,,0.00,VWS V14.01,2013-09-14 06:11:00,
2013-09-14 02:16:00,47.2,47.2,30.03,WNW,291,0.0,0.0,100,-99.99,,,0.00,VWS V14.01,2013-09-14 06:16:00,
2013-09-14 02:21:00,47.2,47.2,30.03,WNW,291,0.0,0.0,100,-99.99,,,0.00,VWS V14.01,2013-09-14 06:21:00,
2013-09-14 02:26:00,47.2,47.2,30.03,WNW,291,0.0,0.0,100,-99.99,,,0.00,VWS V14.01,2013-09-14 06:26:00,
2013-09-14 02:31:00,47.1,47.1,30.03,WNW,291,0.0,0.0,100,-99.99,,,0.00,VWS V14.01,2013-09-14 06:31:00,
2013-09-14 02:36:00,46.9,46.9,30.04,WNW,291,0.0,0.0,100,-99.99,,,0.00,VWS V14.01,2013-09-14 06:36:00,
2013-09-14 02:41:00,46.8,46.8,30.04,WNW,291,0.0,0.0,100,-99.99,,,0.00,VWS V14.01,2013-09-14 06:41:00,
2013-09-14 02:46:00,46.8,46.8,30.04,WNW,291,0.0,0.0,100,-99.99,,,0.00,VWS V14.01,2013-09-14 06:46:00,
2013-09-14 02:51:00,46.7,46.7,30.04,WNW,291,0.0,0.0,100,-99.99,,,0.00,VWS V14.01,2013-09-14 06:51:00,
2013-09-14 02:56:00,46.6,46.6,30.04,WNW,291,0.0,0.0,100,-99.99,,,0.00,VWS V14.01,2013-09-14 06:56:00,
2013-09-14 03:01:00,46.3,46.3,30.04,WNW,291,0.0,0.0,100,-99.99,,,0.00,VWS V14.01,2013-09-14 07:01:00,
2013-09-14 03:06:00,46.1,46.1,30.04,WNW,291,0.0,0.0,100,-99.99,,,0.00,VWS V14.01,2013-09-14 07:06:00,
2013-09-14 03:11:00,46.1,46.1,30.04,WNW,291,0.0,0.0,100,-99.99,,,0.00,VWS V14.01,2013-09-14 07:11:00,
2013-09-14 03:16:00,46.0,46.0,30.04,WNW,291,0.0,0.0,100,-99.99,,,0.00,VWS V14.01,2013-09-14 07:16:00,
2013-09-14 03:21:00,45.8,45.8,30.04,WNW,291,0.0,0.0,100,-99.99,,,0.00,VWS V14.01,2013-09-14 07:21:00,
2013-09-14 03:26:00,45.7,45.7,30.04,WNW,291,0.0,0.0,100,-99.99,,,0.00,VWS V14.01,2013-09-14 07:26:00,
2013-09-14 03:31:00,45.7,45.7,30.04,WNW,291,0.0,0.0,100,-99.99,,,0.00,VWS V14.01,2013-09-14 07:31:00,
2013-09-14 03:36:00,45.6,45.6,30.04,WNW,291,0.0,0.0,100,-99.99,,,0.00,VWS V14.01,2013-09-14 07:36:00,
2013-09-14 03:41:00,45.6,45.6,30.04,WNW,291,0.0,0.0,100,-99.99,,,0.00,VWS V14.01,2013-09-14 07:41:00,
2013-09-14 03:46:00,45.6,45.6,30.04,WNW,291,0.0,0.0,100,-99.99,,,0.00,VWS V14.01,2013-09-14 07:46:00,
2013-09-14 03:51:00,45.7,45.7,30.04,WNW,291,0.0,0.0,100,-99.99,,,0.00,VWS V14.01,2013-09-14 07:51:00,
2013-09-14 03:56:00,45.6,45.6,30.04,WNW,291,0.0,0.0,100,-99.99,,,0.00,VWS V14.01,2013-09-14 07:56:00,
2013-09-14 04:01:00,45.7,45.7,30.04,WNW,291,0.0,0.0,100,-99.99,,,0.00,VWS V14.01,2013-09-14 08:01:00,
2013-09-14 04:06:00,45.7,45.7,30.04,WNW,291,0.0,0.0,100,-99.99,,,0.00,VWS V14.01,2013-09-14 08:06:00,
2013-09-14 04:11:00,45.7,45.7,30.04,WNW,291,0.0,0.0,100,-99.99,,,0.00,VWS V14.01,2013-09-14 08:11:00,
2013-09-14 04:16:00,45.7,45.7,30.04,WNW,291,0.0,0.0,100,-99.99,,,0.00,VWS V14.01,2013-09-14 08:16:00,
2013-09-14 04:21:00,45.7,45.7,30.04,WNW,291,0.0,0.0,100,-99.99,,,0.00,VWS V14.01,2013-09-14 08:21:00,
2013-09-14 04:26:00,45.7,45.7,30.04,WNW,291,0.0,0.0,100,-99.99,,,0.00,VWS V14.01,2013-09-14 08:26:00,
2013-09-14 04:31:00,45.8,45.8,30.04,WNW,291,0.0,0.0,100,-99.99,,,0.00,VWS V14.01,2013-09-14 08:31:00,
2013-09-14 04:36:00,46.0,46.0,30.04,WNW,291,0.0,0.0,100,-99.99,,,0.00,VWS V14.01,2013-09-14 08:36:00,
2013-09-14 04:41:00,46.0,46.0,30.04,WNW,291,0.0,0.0,100,-99.99,,,0.00,VWS V14.01,2013-09-14 08:41:00,
2013-09-14 04:46:00,46.1,46.1,30.04,WNW,291,0.0,0.0,100,-99.99,,,0.00,VWS V14.01,2013-09-14 08:46:00,
2013-09-14 04:51:00,46.1,46.1,30.04,WNW,291,0.0,0.0,100,-99.99,,,0.00,VWS V14.01,2013-09-14 08:51:00,
2013-09-14 04:56:00,46.1,46.1,30.04,WNW,291,0.0,0.0,100,-99.99,,,0.00,VWS V14.01,2013-09-14 08:56:00,
2013-09-14 05:01:00,46.1,46.1,30.04,WNW,291,0.0,0.0,100,-99.99,,,0.00,VWS V14.01,2013-09-14 09:01:00,
2013-09-14 05:06:00,46.2,46.2,30.04,WNW,291,0.0,0.0,100,-99.99,,,0.00,VWS V14.01,2013-09-14 09:06:00,
2013-09-14 05:11:00,46.3,46.3,30.04,WNW,291,0.0,0.0,100,-99.99,,,0.00,VWS V14.01,2013-09-14 09:11:00,
2013-09-14 05:16:00,46.5,46.5,30.04,WNW,291,0.0,0.0,100,-99.99,,,0.00,VWS V14.01,2013-09-14 09:16:00,
2013-09-14 05:21:00,46.6,46.6,30.05,WNW,291,0.0,0.0,100,-99.99,,,0.00,VWS V14.01,2013-09-14 09:21:00,
2013-09-14 05:26:00,46.7,46.7,30.05,WNW,291,0.0,0.0,100,-99.99,,,0.00,VWS V14.01,2013-09-14 09:26:00,
2013-09-14 05:31:00,46.8,46.8,30.05,WNW,291,0.0,0.0,100,-99.99,,,0.00,VWS V14.01,2013-09-14 09:31:00,
2013-09-14 05:36:00,46.8,46.8,30.05,WNW,291,0.0,0.0,100,-99.99,,,0.00,VWS V14.01,2013-09-14 09:36:00,
2013-09-14 05:41:00,47.0,47.0,30.05,WNW,291,0.0,0.0,100,-99.99,,,0.00,VWS V14.01,2013-09-14 09:41:00,
2013-09-14 05:46:00,47.0,47.0,30.05,WNW,291,0.0,0.0,100,-99.99,,,0.00,VWS V14.01,2013-09-14 09:46:00,
2013-09-14 05:51:00,47.1,47.1,30.05,North,1,0.0,5.8,100,-99.99,,,0.00,VWS V14.01,2013-09-14 09:51:00,
2013-09-14 05:55:00,47.2,47.2,30.05,NW,319,0.0,5.8,100,-99.99,,,0.00,VWS V14.01,2013-09-14 09:55:00,
2013-09-14 06:00:00,47.2,47.2,30.05,NW,319,0.0,0.0,100,-99.99,,,0.00,VWS V14.01,2013-09-14 10:00:00,
2013-09-14 06:05:00,47.3,47.3,30.05,WSW,249,0.0,5.4,100,-99.99,,,0.00,VWS V14.01,2013-09-14 10:05:00,
2013-09-14 06:10:00,47.3,47.3,30.05,WSW,249,0.0,5.4,100,-99.99,,,0.00,VWS V14.01,2013-09-14 10:10:00,
2013-09-14 06:15:00,47.4,47.4,30.06,WSW,249,0.0,5.4,100,-99.99,,,0.00,VWS V14.01,2013-09-14 10:15:00,
2013-09-14 06:20:00,47.5,47.5,30.06,WSW,249,0.0,5.4,100,-99.99,,,0.00,VWS V14.01,2013-09-14 10:20:00,
2013-09-14 06:25:00,47.6,47.6,30.06,WSW,249,0.0,5.4,100,-99.99,,,0.00,VWS V14.01,2013-09-14 10:25:00,
2013-09-14 06:30:00,47.4,47.4,30.06,WSW,249,0.0,0.0,100,-99.99,,,0.00,VWS V14.01,2013-09-14 10:30:00,
2013-09-14 06:35:00,47.6,47.6,30.06,WSW,249,0.0,0.0,100,-99.99,,,0.00,VWS V14.01,2013-09-14 10:35:00,
2013-09-14 06:40:00,47.7,47.7,30.06,WSW,249,0.0,3.2,100,-99.99,,,0.00,VWS V14.01,2013-09-14 10:40:00,
2013-09-14 06:45:00,47.8,47.8,30.07,WSW,249,0.0,3.2,100,-99.99,,,0.00,VWS V14.01,2013-09-14 10:45:00,
2013-09-14 06:50:00,47.9,47.9,30.07,WSW,249,0.0,3.2,100,-99.99,,,0.00,VWS V14.01,2013-09-14 10:50:00,
2013-09-14 06:55:00,47.9,47.7,30.08,WSW,249,0.0,3.2,99,-99.99,,,0.00,VWS V14.01,2013-09-14 10:55:00,
2013-09-14 07:00:00,47.9,47.7,30.08,WSW,249,0.0,0.0,99,-99.99,,,0.00,VWS V14.01,2013-09-14 11:00:00,
2013-09-14 07:05:00,47.9,47.6,30.08,WSW,249,0.0,3.5,99,-99.99,,,0.00,VWS V14.01,2013-09-14 11:05:00,
2013-09-14 07:10:00,47.8,47.5,30.08,WSW,249,0.0,3.5,99,-99.99,,,0.00,VWS V14.01,2013-09-14 11:10:00,
2013-09-14 07:15:00,47.8,47.4,30.08,WSW,249,0.0,3.5,99,-99.99,,,0.00,VWS V14.01,2013-09-14 11:15:00,
2013-09-14 07:20:00,47.9,47.6,30.08,WSW,249,0.0,3.5,99,-99.99,,,0.00,VWS V14.01,2013-09-14 11:20:00,
2013-09-14 07:25:00,47.9,47.4,30.08,WSW,249,0.0,3.5,98,-99.99,,,0.00,VWS V14.01,2013-09-14 11:25:00,
2013-09-14 07:30:00,47.9,47.5,30.09,WSW,249,0.0,0.0,98,-99.99,,,0.00,VWS V14.01,2013-09-14 11:30:00,
2013-09-14 07:35:00,47.9,47.4,30.09,WSW,249,0.0,0.0,98,-99.99,,,0.00,VWS V14.01,2013-09-14 11:35:00,
2013-09-14 07:40:00,47.9,47.4,30.09,WSW,249,0.0,0.0,98,-99.99,,,0.00,VWS V14.01,2013-09-14 11:40:00,
2013-09-14 07:45:00,48.0,47.4,30.10,WSW,249,0.0,0.0,98,-99.99,,,0.00,VWS V14.01,2013-09-14 11:45:00,
2013-09-14 07:50:00,48.1,47.6,30.10,WSW,249,0.0,0.0,98,-99.99,,,0.00,VWS V14.01,2013-09-14 11:50:00,
2013-09-14 07:55:00,48.2,47.7,30.10,WSW,249,0.0,0.0,98,-99.99,,,0.00,VWS V14.01,2013-09-14 11:55:00,
2013-09-14 08:00:00,48.1,47.4,30.10,WSW,249,0.0,0.0,97,-99.99,,,0.00,VWS V14.01,2013-09-14 12:00:00,
2013-09-14 08:05:00,48.2,47.5,30.10,WSW,249,0.0,0.0,97,-99.99,,,0.00,VWS V14.01,2013-09-14 12:05:00,
2013-09-14 08:10:00,48.2,47.4,30.11,WSW,249,0.0,0.0,97,-99.99,,,0.00,VWS V14.01,2013-09-14 12:10:00,
2013-09-14 08:15:00,48.3,47.5,30.11,WSW,249,0.0,0.0,97,-99.99,,,0.00,VWS V14.01,2013-09-14 12:15:00,
2013-09-14 08:20:00,48.4,47.5,30.11,WSW,249,0.0,0.0,97,-99.99,,,0.00,VWS V14.01,2013-09-14 12:20:00,
2013-09-14 08:25:00,48.6,47.6,30.11,WSW,249,0.0,0.0,96,-99.99,,,0.00,VWS V14.01,2013-09-14 12:25:00,
2013-09-14 08:30:00,48.7,47.6,30.12,WSW,249,0.0,0.0,96,-99.99,,,0.00,VWS V14.01,2013-09-14 12:30:00,
2013-09-14 08:35:00,48.6,46.9,30.12,WSW,249,0.0,0.0,94,-99.99,,,0.00,VWS V14.01,2013-09-14 12:35:00,
2013-09-14 08:40:00,48.6,46.6,30.12,WSW,249,0.0,0.0,93,-99.99,,,0.00,VWS V14.01,2013-09-14 12:40:00,
2013-09-14 08:45:00,48.9,46.8,30.12,WNW,290,4.3,6.2,92,-99.99,,,0.00,VWS V14.01,2013-09-14 12:45:00,
2013-09-14 08:50:00,48.9,46.5,30.13,North,352,0.0,7.4,91,-99.99,,,0.00,VWS V14.01,2013-09-14 12:50:00,
2013-09-14 08:55:00,49.1,46.6,30.13,North,352,0.0,7.4,91,-99.99,,,0.00,VWS V14.01,2013-09-14 12:55:00,
2013-09-14 09:00:00,49.3,46.7,30.13,North,352,0.0,0.0,91,-99.99,,,0.00,VWS V14.01,2013-09-14 13:00:00,
2013-09-14 09:05:00,49.4,46.6,30.13,NW,314,0.0,7.1,90,-99.99,,,0.00,VWS V14.01,2013-09-14 13:05:00,
2013-09-14 09:10:00,49.2,44.9,30.13,NNW,336,0.0,7.1,85,-99.99,,,0.00,VWS V14.01,2013-09-14 13:10:00,
2013-09-14 09:15:00,49.4,45.2,30.13,West,280,0.0,8.0,85,-99.99,,,0.00,VWS V14.01,2013-09-14 13:15:00,
2013-09-14 09:20:00,49.7,45.5,30.13,NW,304,5.3,8.0,86,-99.99,,,0.00,VWS V14.01,2013-09-14 13:20:00,
2013-09-14 09:25:00,49.8,44.8,30.13,WNW,283,6.8,8.9,83,-99.99,,,0.00,VWS V14.01,2013-09-14 13:25:00,
2013-09-14 09:30:00,49.7,42.5,30.14,NW,325,0.0,4.5,76,-99.99,,,0.00,VWS V14.01,2013-09-14 13:30:00,
2013-09-14 09:35:00,49.9,43.8,30.14,NNW,329,6.0,7.3,79,-99.99,,,0.00,VWS V14.01,2013-09-14 13:35:00,
2013-09-14 09:40:00,50.0,43.4,30.14,WSW,252,0.0,8.6,78,-99.99,,,0.00,VWS V14.01,2013-09-14 13:40:00,
2013-09-14 09:45:00,50.0,43.6,30.14,NW,315,0.0,10.0,79,-99.99,,,0.00,VWS V14.01,2013-09-14 13:45:00,
2013-09-14 09:50:00,49.9,43.3,30.15,WSW,257,0.0,10.8,78,-99.99,,,0.00,VWS V14.01,2013-09-14 13:50:00,
2013-09-14 09:55:00,49.9,43.5,30.15,NW,309,0.0,10.8,79,-99.99,,,0.00,VWS V14.01,2013-09-14 13:55:00,
2013-09-14 10:00:00,49.9,43.4,30.15,WNW,302,0.0,0.0,78,-99.99,,,0.00,VWS V14.01,2013-09-14 14:00:00,
2013-09-14 10:05:00,49.9,43.1,30.15,WNW,283,0.0,7.4,77,-99.99,,,0.00,VWS V14.01,2013-09-14 14:05:00,
2013-09-14 10:10:00,50.0,43.3,30.15,WSW,242,2.0,7.5,78,-99.99,,,0.00,VWS V14.01,2013-09-14 14:10:00,
2013-09-14 10:15:00,50.0,42.7,30.15,West,277,0.0,7.5,76,-99.99,,,0.00,VWS V14.01,2013-09-14 14:15:00,
2013-09-14 10:20:00,50.2,43.1,30.15,WNW,302,4.5,7.5,77,-99.99,,,0.00,VWS V14.01,2013-09-14 14:20:00,
2013-09-14 10:25:00,50.4,42.8,30.15,NNW,342,0.0,7.5,75,-99.99,,,0.00,VWS V14.01,2013-09-14 14:25:00,
2013-09-14 10:30:00,50.5,42.1,30.15,NW,325,2.8,4.5,73,-99.99,,,0.00,VWS V14.01,2013-09-14 14:30:00,
2013-09-14 10:35:00,50.6,42.4,30.15,NNE,28,0.0,9.6,73,-99.99,,,0.00,VWS V14.01,2013-09-14 14:35:00,
2013-09-14 10:40:00,50.6,42.1,30.15,NW,314,0.0,9.6,73,-99.99,,,0.00,VWS V14.01,2013-09-14 14:40:00,
2013-09-14 10:45:00,50.6,42.0,30.15,NNW,328,0.0,9.6,72,-99.99,,,0.00,VWS V14.01,2013-09-14 14:45:00,
2013-09-14 10:50:00,50.6,41.6,30.15,West,276,0.0,9.6,71,-99.99,,,0.00,VWS V14.01,2013-09-14 14:50:00,
2013-09-14 10:55:00,51.0,42.1,30.15,West,264,0.0,9.6,71,-99.99,,,0.00,VWS V14.01,2013-09-14 14:55:00,
2013-09-14 11:00:00,51.2,42.1,30.15,NW,314,0.0,0.0,71,-99.99,,,0.00,VWS V14.01,2013-09-14 15:00:00,
2013-09-14 11:05:00,51.4,42.0,30.15,WNW,292,0.0,6.5,70,-99.99,,,0.00,VWS V14.01,2013-09-14 15:05:00,
2013-09-14 11:10:00,51.5,41.8,30.15,West,264,0.0,6.5,69,-99.99,,,0.00,VWS V14.01,2013-09-14 15:10:00,
2013-09-14 11:14:00,51.7,42.4,30.15,WSW,249,0.0,7.9,70,-99.99,,,0.00,VWS V14.01,2013-09-14 15:14:00,
2013-09-14 11:19:00,51.8,41.9,30.15,NW,304,6.3,7.9,69,-99.99,,,0.00,VWS V14.01,2013-09-14 15:19:00,
2013-09-14 11:24:00,52.0,42.4,30.15,NNW,339,3.4,7.9,70,-99.99,,,0.00,VWS V14.01,2013-09-14 15:24:00,
2013-09-14 11:29:00,52.2,42.5,30.15,WNW,287,0.0,7.9,69,-99.99,,,0.00,VWS V14.01,2013-09-14 15:29:00,
2013-09-14 11:34:00,52.4,42.7,30.15,WNW,295,3.0,8.6,69,-99.99,,,0.00,VWS V14.01,2013-09-14 15:34:00,
2013-09-14 11:39:00,52.5,42.2,30.15,WNW,284,0.0,8.8,68,-99.99,,,0.00,VWS V14.01,2013-09-14 15:39:00,
2013-09-14 11:44:00,52.7,42.8,30.15,NW,311,0.0,8.8,69,-99.99,,,0.00,VWS V14.01,2013-09-14 15:44:00,
2013-09-14 11:49:00,52.9,42.8,30.15,NW,316,3.5,8.8,68,-99.99,,,0.00,VWS V14.01,2013-09-14 15:49:00,
2013-09-14 11:54:00,53.0,42.8,30.15,NW,325,0.0,9.1,68,-99.99,,,0.00,VWS V14.01,2013-09-14 15:54:00,
2013-09-14 11:59:00,53.0,42.7,30.15,WSW,250,6.4,9.1,68,-99.99,,,0.00,VWS V14.01,2013-09-14 15:59:00,
2013-09-14 12:04:00,53.1,43.0,30.15,NNW,343,3.0,8.0,68,-99.99,,,0.00,VWS V14.01,2013-09-14 16:04:00,
2013-09-14 12:09:00,53.3,43.2,30.15,West,276,4.5,8.3,68,-99.99,,,0.00,VWS V14.01,2013-09-14 16:09:00,
2013-09-14 12:14:00,53.3,43.2,30.15,West,264,0.0,8.3,68,-99.99,,,0.00,VWS V14.01,2013-09-14 16:14:00,
2013-09-14 12:19:00,53.2,42.9,30.15,West,266,0.0,8.3,68,-99.99,,,0.00,VWS V14.01,2013-09-14 16:19:00,
2013-09-14 12:24:00,53.4,43.3,30.15,West,278,0.0,8.3,68,-99.99,,,0.00,VWS V14.01,2013-09-14 16:24:00,
2013-09-14 12:29:00,53.7,43.3,30.15,NW,308,0.0,8.3,68,-99.99,,,0.00,VWS V14.01,2013-09-14 16:29:00,
2013-09-14 12:34:00,53.9,43.0,30.15,WSW,240,0.0,8.8,66,-99.99,,,0.00,VWS V14.01,2013-09-14 16:34:00,
2013-09-14 12:39:00,54.2,43.3,30.14,North,3,0.0,5.7,67,-99.99,,,0.00,VWS V14.01,2013-09-14 16:39:00,
2013-09-14 12:44:00,54.5,43.4,30.14,West,267,0.0,7.8,66,-99.99,,,0.00,VWS V14.01,2013-09-14 16:44:00,
2013-09-14 12:49:00,55.0,43.8,30.14,WNW,291,4.7,7.8,66,-99.99,,,0.00,VWS V14.01,2013-09-14 16:49:00,
2013-09-14 12:54:00,55.6,43.7,30.14,NW,305,0.0,7.8,64,-99.99,,,0.00,VWS V14.01,2013-09-14 16:54:00,
2013-09-14 12:59:00,55.9,43.9,30.14,West,277,0.0,7.8,64,-99.99,,,0.00,VWS V14.01,2013-09-14 16:59:00,
2013-09-14 13:04:00,56.0,43.9,30.14,NW,325,4.9,8.4,64,-99.99,,,0.00,VWS V14.01,2013-09-14 17:04:00,
2013-09-14 13:09:00,56.0,43.9,30.14,East,80,3.2,8.8,64,-99.99,,,0.00,VWS V14.01,2013-09-14 17:09:00,
2013-09-14 13:14:00,56.0,43.6,30.14,NW,318,5.5,8.8,63,-99.99,,,0.00,VWS V14.01,2013-09-14 17:14:00,
2013-09-14 13:19:00,56.0,43.8,30.13,WNW,295,0.0,8.8,63,-99.99,,,0.00,VWS V14.01,2013-09-14 17:19:00,
2013-09-14 13:24:00,56.1,44.3,30.13,West,280,0.0,8.8,64,-99.99,,,0.00,VWS V14.01,2013-09-14 17:24:00,
2013-09-14 13:29:00,56.0,43.9,30.13,WNW,300,0.0,8.8,64,-99.99,,,0.00,VWS V14.01,2013-09-14 17:29:00,
2013-09-14 13:34:00,56.2,44.0,30.13,WNW,300,0.0,0.0,64,-99.99,,,0.00,VWS V14.01,2013-09-14 17:34:00,
2013-09-14 13:39:00,56.4,44.1,30.13,WNW,284,4.2,8.5,63,-99.99,,,0.00,VWS V14.01,2013-09-14 17:39:00,
2013-09-14 13:44:00,56.4,43.9,30.13,WSW,243,0.0,8.5,63,-99.99,,,0.00,VWS V14.01,2013-09-14 17:44:00,
2013-09-14 13:49:00,56.4,43.8,30.13,WSW,243,0.0,8.5,63,-99.99,,,0.00,VWS V14.01,2013-09-14 17:49:00,
2013-09-14 13:54:00,56.7,44.5,30.13,NNW,336,0.0,8.5,64,-99.99,,,0.00,VWS V14.01,2013-09-14 17:54:00,
2013-09-14 13:59:00,56.8,44.1,30.13,NNW,347,0.0,8.5,62,-99.99,,,0.00,VWS V14.01,2013-09-14 17:59:00,
2013-09-14 14:04:00,56.8,43.8,30.13,WNW,295,0.0,8.3,62,-99.99,,,0.00,VWS V14.01,2013-09-14 18:04:00,
2013-09-14 14:09:00,57.2,44.3,30.13,WSW,239,0.0,8.3,62,-99.99,,,0.00,VWS V14.01,2013-09-14 18:09:00,
2013-09-14 14:14:00,57.2,43.6,30.13,North,0,0.0,8.3,60,-99.99,,,0.00,VWS V14.01,2013-09-14 18:14:00,
2013-09-14 14:19:00,56.9,44.0,30.13,North,0,0.0,8.3,62,-99.99,,,0.00,VWS V14.01,2013-09-14 18:19:00,
2013-09-14 14:24:00,57.4,44.6,30.13,NW,319,0.0,8.3,62,-99.99,,,0.00,VWS V14.01,2013-09-14 18:24:00,
2013-09-14 14:29:00,57.9,44.7,30.13,WSW,252,0.0,8.3,61,-99.99,,,0.00,VWS V14.01,2013-09-14 18:29:00,
2013-09-14 14:34:00,58.1,44.7,30.13,NW,305,0.0,6.8,61,-99.99,,,0.00,VWS V14.01,2013-09-14 18:34:00,
2013-09-14 14:39:00,58.1,44.5,30.13,NW,305,0.0,6.8,60,-99.99,,,0.00,VWS V14.01,2013-09-14 18:39:00,
2013-09-14 14:44:00,58.3,44.9,30.13,SW,218,0.0,6.8,61,-99.99,,,0.00,VWS V14.01,2013-09-14 18:44:00,
2013-09-14 14:49:00,58.6,44.9,30.13,NW,308,0.0,8.8,60,-99.99,,,0.00,VWS V14.01,2013-09-14 18:49:00,
2013-09-14 14:54:00,58.9,44.7,30.13,WNW,285,0.0,8.8,59,-99.99,,,0.00,VWS V14.01,2013-09-14 18:54:00,
2013-09-14 14:59:00,59.0,44.8,30.12,West,270,0.0,8.8,59,-99.99,,,0.00,VWS V14.01,2013-09-14 18:59:00,
2013-09-14 15:04:00,58.9,44.3,30.12,West,270,0.0,0.0,58,-99.99,,,0.00,VWS V14.01,2013-09-14 19:04:00,
2013-09-14 15:09:00,59.0,45.1,30.12,SW,221,0.0,3.3,60,-99.99,,,0.00,VWS V14.01,2013-09-14 19:09:00,
2013-09-14 15:14:00,59.3,45.2,30.12,SW,221,0.0,3.3,60,-99.99,,,0.00,VWS V14.01,2013-09-14 19:14:00,
2013-09-14 15:19:00,59.4,44.8,30.13,WNW,283,0.0,9.9,58,-99.99,,,0.00,VWS V14.01,2013-09-14 19:19:00,
2013-09-14 15:24:00,59.7,45.7,30.12,North,350,0.0,9.9,60,-99.99,,,0.00,VWS V14.01,2013-09-14 19:24:00,
2013-09-14 15:29:00,59.9,45.7,30.13,West,281,0.0,9.9,59,-99.99,,,0.00,VWS V14.01,2013-09-14 19:29:00,
2013-09-14 15:34:00,60.1,45.5,30.13,West,278,0.0,6.9,58,-99.99,,,0.00,VWS V14.01,2013-09-14 19:34:00,
2013-09-14 15:39:00,60.2,45.9,30.13,NW,318,6.9,10.4,59,-99.99,,,0.00,VWS V14.01,2013-09-14 19:39:00,
2013-09-14 15:44:00,59.5,44.5,30.12,NW,308,0.0,10.4,58,-99.99,,,0.00,VWS V14.01,2013-09-14 19:44:00,
2013-09-14 15:49:00,59.4,45.3,30.12,NW,308,0.0,10.4,60,-99.99,,,0.00,VWS V14.01,2013-09-14 19:49:00,
2013-09-14 15:54:00,59.3,45.5,30.12,NW,304,6.5,10.4,60,-99.99,,,0.00,VWS V14.01,2013-09-14 19:54:00,
2013-09-14 15:59:00,59.5,45.5,30.12,West,263,0.0,10.4,60,-99.99,,,0.00,VWS V14.01,2013-09-14 19:59:00,
2013-09-14 16:04:00,59.8,45.7,30.12,West,264,0.0,7.2,60,-99.99,,,0.00,VWS V14.01,2013-09-14 20:04:00,
2013-09-14 16:09:00,60.1,46.0,30.12,NNW,342,0.0,7.2,60,-99.99,,,0.00,VWS V14.01,2013-09-14 20:09:00,
2013-09-14 16:14:00,60.5,46.1,30.12,NNW,342,0.0,7.2,59,-99.99,,,0.00,VWS V14.01,2013-09-14 20:14:00,
2013-09-14 16:19:00,60.8,46.5,30.12,WNW,292,0.0,8.0,59,-99.99,,,0.00,VWS V14.01,2013-09-14 20:19:00,
2013-09-14 16:24:00,60.9,46.4,30.13,WNW,283,0.0,8.0,59,-99.99,,,0.00,VWS V14.01,2013-09-14 20:24:00,
2013-09-14 16:29:00,60.6,45.8,30.12,NW,305,0.0,8.5,58,-99.99,,,0.00,VWS V14.01,2013-09-14 20:29:00,
2013-09-14 16:34:00,60.4,46.3,30.13,West,266,0.0,8.8,60,-99.99,,,0.00,VWS V14.01,2013-09-14 20:34:00,
2013-09-14 16:39:00,60.4,45.8,30.13,NNW,338,0.0,14.6,58,-99.99,,,0.00,VWS V14.01,2013-09-14 20:39:00,
2013-09-14 16:44:00,60.5,46.6,30.13,NW,326,3.2,14.6,60,-99.99,,,0.00,VWS V14.01,2013-09-14 20:44:00,
2013-09-14 16:49:00,60.7,46.7,30.13,SSW,207,0.0,14.6,60,-99.99,,,0.00,VWS V14.01,2013-09-14 20:49:00,
2013-09-14 16:54:00,60.8,46.4,30.13,NW,304,0.0,14.6,59,-99.99,,,0.00,VWS V14.01,2013-09-14 20:54:00,
2013-09-14 16:59:00,60.7,45.9,30.13,NNE,20,0.0,14.6,58,-99.99,,,0.00,VWS V14.01,2013-09-14 20:59:00,
2013-09-14 17:04:00,60.7,46.5,30.13,NNE,20,0.0,3.1,59,-99.99,,,0.00,VWS V14.01,2013-09-14 21:04:00,
2013-09-14 17:09:00,60.6,46.2,30.13,WSW,256,0.0,5.3,59,-99.99,,,0.00,VWS V14.01,2013-09-14 21:09:00,
2013-09-14 17:14:00,60.6,46.7,30.13,NW,309,0.0,5.3,60,-99.99,,,0.00,VWS V14.01,2013-09-14 21:14:00,
2013-09-14 17:19:00,60.5,46.7,30.13,NW,309,0.0,5.3,60,-99.99,,,0.00,VWS V14.01,2013-09-14 21:19:00,
2013-09-14 17:24:00,60.6,46.5,30.13,WNW,300,0.0,7.4,60,-99.99,,,0.00,VWS V14.01,2013-09-14 21:24:00,
2013-09-14 17:29:00,60.6,46.1,30.14,NNW,347,0.0,11.6,59,-99.99,,,0.00,VWS V14.01,2013-09-14 21:29:00,
2013-09-14 17:33:00,60.8,46.5,30.14,West,273,3.3,4.3,59,-99.99,,,0.00,VWS V14.01,2013-09-14 21:33:00,
2013-09-14 17:38:00,60.7,46.0,30.14,WNW,290,0.0,8.3,58,-99.99,,,0.00,VWS V14.01,2013-09-14 21:38:00,
2013-09-14 17:43:00,60.6,45.8,30.14,WNW,290,2.9,8.3,58,-99.99,,,0.00,VWS V14.01,2013-09-14 21:43:00,
2013-09-14 17:48:00,60.6,46.1,30.14,West,259,0.0,8.3,59,-99.99,,,0.00,VWS V14.01,2013-09-14 21:48:00,
2013-09-14 17:53:00,60.7,46.7,30.14,West,259,0.0,8.3,60,-99.99,,,0.00,VWS V14.01,2013-09-14 21:53:00,
2013-09-14 17:58:00,60.5,46.6,30.14,West,259,0.0,8.3,60,-99.99,,,0.00,VWS V14.01,2013-09-14 21:58:00,
2013-09-14 18:03:00,60.5,47.0,30.15,West,259,0.0,0.0,61,-99.99,,,0.00,VWS V14.01,2013-09-14 22:03:00,
2013-09-14 18:08:00,60.5,46.6,30.15,NW,326,0.0,7.5,60,-99.99,,,0.00,VWS V14.01,2013-09-14 22:08:00,
2013-09-14 18:13:00,60.3,46.2,30.15,NW,326,0.0,7.5,60,-99.99,,,0.00,VWS V14.01,2013-09-14 22:13:00,
2013-09-14 18:18:00,60.3,46.9,30.15,WNW,294,0.0,7.5,61,-99.99,,,0.00,VWS V14.01,2013-09-14 22:18:00,
2013-09-14 18:23:00,60.2,46.9,30.15,West,280,0.0,7.5,62,-99.99,,,0.00,VWS V14.01,2013-09-14 22:23:00,
2013-09-14 18:28:00,60.1,46.8,30.15,West,280,0.0,7.5,62,-99.99,,,0.00,VWS V14.01,2013-09-14 22:28:00,
2013-09-14 18:33:00,59.8,46.3,30.15,WNW,284,0.0,5.0,61,-99.99,,,0.00,VWS V14.01,2013-09-14 22:33:00,
2013-09-14 18:38:00,59.8,47.0,30.15,WNW,284,0.0,5.0,62,-99.99,,,0.00,VWS V14.01,2013-09-14 22:38:00,
2013-09-14 18:43:00,59.6,47.1,30.16,WNW,284,0.0,5.0,63,-99.99,,,0.00,VWS V14.01,2013-09-14 22:43:00,
2013-09-14 18:48:00,59.4,47.1,30.16,WNW,284,0.0,5.0,64,-99.99,,,0.00,VWS V14.01,2013-09-14 22:48:00,
2013-09-14 18:49:00,59.4,47.2,30.16,WNW,284,0.0,5.0,64,-99.99,,,0.00,VWS V14.01,2013-09-14 22:49:00,
2013-09-14 18:54:00,59.1,47.3,30.16,WNW,284,0.0,5.0,65,-99.99,,,0.00,VWS V14.01,2013-09-14 22:54:00,
2013-09-14 18:59:00,59.0,47.3,30.16,WNW,284,0.0,5.0,65,-99.99,,,0.00,VWS V14.01,2013-09-14 22:59:00,
2013-09-14 19:04:00,58.7,47.1,30.16,WNW,284,0.0,0.0,65,-99.99,,,0.00,VWS V14.01,2013-09-14 23:04:00,
2013-09-14 19:09:00,58.6,48.0,30.16,WNW,284,0.0,0.0,68,-99.99,,,0.00,VWS V14.01,2013-09-14 23:09:00,
2013-09-14 19:14:00,58.4,48.6,30.16,WNW,284,0.0,0.0,70,-99.99,,,0.00,VWS V14.01,2013-09-14 23:14:00,
2013-09-14 19:19:00,57.9,48.7,30.16,WNW,284,0.0,0.0,71,-99.99,,,0.00,VWS V14.01,2013-09-14 23:19:00,
2013-09-14 19:24:00,57.4,48.4,30.16,WNW,284,0.0,0.0,72,-99.99,,,0.00,VWS V14.01,2013-09-14 23:24:00,
2013-09-14 19:29:00,56.9,48.5,30.16,WNW,284,0.0,0.0,73,-99.99,,,0.00,VWS V14.01,2013-09-14 23:29:00,
2013-09-14 19:34:00,56.4,48.4,30.17,WNW,284,0.0,0.0,74,-99.99,,,0.00,VWS V14.01,2013-09-14 23:34:00,
2013-09-14 19:39:00,56.1,48.5,30.16,WNW,284,0.0,0.0,76,-99.99,,,0.00,VWS V14.01,2013-09-14 23:39:00,
2013-09-14 19:44:00,55.8,48.7,30.16,WNW,284,0.0,0.0,77,-99.99,,,0.00,VWS V14.01,2013-09-14 23:44:00,
2013-09-14 19:49:00,55.4,48.7,30.17,WNW,284,0.0,0.0,78,-99.99,,,0.00,VWS V14.01,2013-09-14 23:49:00,
2013-09-14 19:54:00,55.0,48.8,30.17,WNW,284,0.0,0.0,80,-99.99,,,0.00,VWS V14.01,2013-09-14 23:54:00,
2013-09-14 19:59:00,54.7,48.7,30.17,WNW,284,0.0,0.0,80,-99.99,,,0.00,VWS V14.01,2013-09-14 23:59:00,
2013-09-14 20:04:00,54.5,48.8,30.17,WNW,284,0.0,0.0,81,-99.99,,,0.00,VWS V14.01,2013-09-15 00:04:00,
2013-09-14 20:09:00,54.2,48.6,30.17,WNW,284,0.0,0.0,81,-99.99,,,0.00,VWS V14.01,2013-09-15 00:09:00,
2013-09-14 20:13:00,54.1,48.8,30.18,WNW,284,0.0,0.0,82,-99.99,,,0.00,VWS V14.01,2013-09-15 00:13:00,
2013-09-14 20:18:00,53.8,48.8,30.18,WNW,284,0.0,0.0,83,-99.99,,,0.00,VWS V14.01,2013-09-15 00:18:00,
2013-09-14 20:23:00,53.6,48.8,30.18,WNW,284,0.0,0.0,84,-99.99,,,0.00,VWS V14.01,2013-09-15 00:23:00,
2013-09-14 20:28:00,53.4,48.7,30.18,WNW,284,0.0,0.0,84,-99.99,,,0.00,VWS V14.01,2013-09-15 00:28:00,
2013-09-14 20:33:00,53.0,48.6,30.18,WNW,284,0.0,0.0,85,-99.99,,,0.00,VWS V14.01,2013-09-15 00:33:00,
2013-09-14 20:38:00,52.9,48.7,30.18,WNW,284,0.0,0.0,86,-99.99,,,0.00,VWS V14.01,2013-09-15 00:38:00,
2013-09-14 20:43:00,52.5,48.9,30.18,WNW,284,0.0,0.0,88,-99.99,,,0.00,VWS V14.01,2013-09-15 00:43:00,
2013-09-14 20:48:00,52.3,49.0,30.19,WNW,284,0.0,0.0,89,-99.99,,,0.00,VWS V14.01,2013-09-15 00:48:00,
2013-09-14 20:53:00,52.1,49.0,30.19,WNW,284,0.0,0.0,89,-99.99,,,0.00,VWS V14.01,2013-09-15 00:53:00,
2013-09-14 20:58:00,52.0,49.0,30.19,WNW,284,0.0,0.0,89,-99.99,,,0.00,VWS V14.01,2013-09-15 00:58:00,
2013-09-14 21:03:00,51.8,48.9,30.19,WNW,284,0.0,0.0,90,-99.99,,,0.00,VWS V14.01,2013-09-15 01:03:00,
2013-09-14 21:08:00,51.7,48.9,30.19,WNW,284,0.0,0.0,90,-99.99,,,0.00,VWS V14.01,2013-09-15 01:08:00,
2013-09-14 21:13:00,51.6,48.7,30.19,WNW,284,0.0,0.0,90,-99.99,,,0.00,VWS V14.01,2013-09-15 01:13:00,
2013-09-14 21:18:00,51.2,48.5,30.19,WNW,284,0.0,0.0,90,-99.99,,,0.00,VWS V14.01,2013-09-15 01:18:00,
2013-09-14 21:23:00,50.9,48.4,30.19,WNW,284,0.0,0.0,91,-99.99,,,0.00,VWS V14.01,2013-09-15 01:23:00,
2013-09-14 21:28:00,50.7,48.3,30.20,WNW,284,0.0,0.0,92,-99.99,,,0.00,VWS V14.01,2013-09-15 01:28:00,
2013-09-14 21:33:00,50.7,48.5,30.20,WNW,284,0.0,0.0,92,-99.99,,,0.00,VWS V14.01,2013-09-15 01:33:00,
2013-09-14 21:38:00,50.6,48.6,30.20,WNW,284,0.0,0.0,93,-99.99,,,0.00,VWS V14.01,2013-09-15 01:38:00,
2013-09-14 21:43:00,50.5,48.4,30.20,WNW,284,0.0,0.0,92,-99.99,,,0.00,VWS V14.01,2013-09-15 01:43:00,
2013-09-14 21:48:00,50.2,48.2,30.20,WNW,284,0.0,0.0,93,-99.99,,,0.00,VWS V14.01,2013-09-15 01:48:00,
2013-09-14 21:53:00,49.9,48.0,30.20,WNW,284,0.0,0.0,93,-99.99,,,0.00,VWS V14.01,2013-09-15 01:53:00,
2013-09-14 21:58:00,49.8,48.0,30.20,WNW,284,0.0,0.0,94,-99.99,,,0.00,VWS V14.01,2013-09-15 01:58:00,
2013-09-14 22:03:00,49.5,48.0,30.20,WNW,284,0.0,0.0,94,-99.99,,,0.00,VWS V14.01,2013-09-15 02:03:00,
2013-09-14 22:08:00,49.5,48.1,30.20,WNW,284,0.0,0.0,95,-99.99,,,0.00,VWS V14.01,2013-09-15 02:08:00,
2013-09-14 22:13:00,49.4,48.0,30.20,WNW,284,0.0,0.0,95,-99.99,,,0.00,VWS V14.01,2013-09-15 02:13:00,
2013-09-14 22:18:00,49.3,48.0,30.20,WNW,284,0.0,0.0,95,-99.99,,,0.00,VWS V14.01,2013-09-15 02:18:00,
2013-09-14 22:23:00,49.1,47.8,30.20,WNW,284,0.0,0.0,95,-99.99,,,0.00,VWS V14.01,2013-09-15 02:23:00,
2013-09-14 22:28:00,49.0,47.8,30.20,WNW,284,0.0,0.0,96,-99.99,,,0.00,VWS V14.01,2013-09-15 02:28:00,
2013-09-14 22:33:00,48.8,47.7,30.20,WNW,284,0.0,0.0,96,-99.99,,,0.00,VWS V14.01,2013-09-15 02:33:00,
2013-09-14 22:38:00,49.0,48.0,30.21,WNW,284,0.0,0.0,96,-99.99,,,0.00,VWS V14.01,2013-09-15 02:38:00,
2013-09-14 22:43:00,48.9,48.0,30.21,WNW,284,0.0,0.0,97,-99.99,,,0.00,VWS V14.01,2013-09-15 02:43:00,
2013-09-14 22:48:00,48.8,47.8,30.21,WNW,284,0.0,0.0,96,-99.99,,,0.00,VWS V14.01,2013-09-15 02:48:00,
2013-09-14 22:53:00,48.7,47.8,30.21,WNW,284,0.0,0.0,96,-99.99,,,0.00,VWS V14.01,2013-09-15 02:53:00,
2013-09-14 22:58:00,48.4,47.5,30.22,WNW,284,0.0,0.0,97,-99.99,,,0.00,VWS V14.01,2013-09-15 02:58:00,
2013-09-14 23:03:00,48.1,47.2,30.22,WNW,284,0.0,0.0,97,-99.99,,,0.00,VWS V14.01,2013-09-15 03:03:00,
2013-09-14 23:08:00,47.7,46.9,30.22,WNW,284,0.0,1.7,97,-99.99,,,0.00,VWS V14.01,2013-09-15 03:08:00,
2013-09-14 23:13:00,47.7,47.1,30.21,WNW,284,0.0,1.7,98,-99.99,,,0.00,VWS V14.01,2013-09-15 03:13:00,
2013-09-14 23:18:00,47.6,47.0,30.21,WNW,284,0.0,1.7,98,-99.99,,,0.00,VWS V14.01,2013-09-15 03:18:00,
2013-09-14 23:23:00,47.4,46.8,30.21,WNW,284,0.0,1.7,98,-99.99,,,0.00,VWS V14.01,2013-09-15 03:23:00,
2013-09-14 23:28:00,47.2,46.7,30.21,WNW,284,0.0,1.7,98,-99.99,,,0.00,VWS V14.01,2013-09-15 03:28:00,
2013-09-14 23:33:00,47.0,46.5,30.22,WNW,284,0.0,0.0,98,-99.99,,,0.00,VWS V14.01,2013-09-15 03:33:00,
2013-09-14 23:38:00,46.8,46.4,30.22,WNW,284,0.0,0.0,98,-99.99,,,0.00,VWS V14.01,2013-09-15 03:38:00,
2013-09-14 23:43:00,46.5,46.2,30.22,WNW,284,0.0,0.0,99,-99.99,,,0.00,VWS V14.01,2013-09-15 03:43:00,
2013-09-14 23:48:00,46.2,45.9,30.22,WNW,284,0.0,0.0,99,-99.99,,,0.00,VWS V14.01,2013-09-15 03:48:00,
2013-09-14 23:53:00,46.0,45.9,30.21,WNW,284,0.0,0.0,100,-99.99,,,0.00,VWS V14.01,2013-09-15 03:53:00,
2013-09-14 23:58:00,45.9,45.9,30.22,WNW,284,0.0,0.0,100,-99.99,,,0.00,VWS V14.01,2013-09-15 03:58:00,